Terminal Aerodrome Forecast
Issued by NWS Grand Junction, CO

Home | Current Version | Previous Version | Text Only | Print | Product List | Glossary On
Versions: 1 2 3 4 5 6 7 8 9 10 11 12 13
000
FTUS45 KGJT 300528
TAFGJT
TAF
KGJT 300528Z 3006/3106 07004KT P6SM FEW250
     FM301100 12009KT P6SM SCT250
     FM301600 15009KT P6SM BKN200
     FM302300 22009KT P6SM VCSH BKN110
     FM310300 17007KT P6SM -SHRA OVC060=

USA.gov is the U.S. government's official web portal to all federal, state and local government web resources and services.